sensor_id;sensor_type;location;lat;lon;timestamp;temperature;humidity
22940;DHT22;11636;52.086;5.090;2022-12-07T00:01:19;4.50;99.90
22940;DHT22;11636;52.086;5.090;2022-12-07T00:04:26;4.60;99.90
22940;DHT22;11636;52.086;5.090;2022-12-07T00:06:53;4.60;99.90
22940;DHT22;11636;52.086;5.090;2022-12-07T00:09:30;4.60;99.90
22940;DHT22;11636;52.086;5.090;2022-12-07T00:12:24;4.60;99.90
22940;DHT22;11636;52.086;5.090;2022-12-07T00:15:19;4.60;99.90
22940;DHT22;11636;52.086;5.090;2022-12-07T00:18:00;4.60;99.90
22940;DHT22;11636;52.086;5.090;2022-12-07T00:20:34;4.50;99.90
22940;DHT22;11636;52.086;5.090;2022-12-07T00:26:53;4.50;99.90
22940;DHT22;11636;52.086;5.090;2022-12-07T00:29:34;4.40;99.90
22940;DHT22;11636;52.086;5.090;2022-12-07T00:32:24;4.40;99.90
22940;DHT22;11636;52.086;5.090;2022-12-07T00:35:00;4.40;99.90
22940;DHT22;11636;52.086;5.090;2022-12-07T00:37:56;4.40;99.90
22940;DHT22;11636;52.086;5.090;2022-12-07T00:44:11;4.40;99.90
22940;DHT22;11636;52.086;5.090;2022-12-07T00:47:06;4.30;99.90
22940;DHT22;11636;52.086;5.090;2022-12-07T00:49:34;4.30;99.90
22940;DHT22;11636;52.086;5.090;2022-12-07T00:52:34;4.20;99.90
22940;DHT22;11636;52.086;5.090;2022-12-07T00:55:41;4.20;99.90
22940;DHT22;11636;52.086;5.090;2022-12-07T00:58:51;4.20;99.90
22940;DHT22;11636;52.086;5.090;2022-12-07T01:01:46;4.20;99.90
22940;DHT22;11636;52.086;5.090;2022-12-07T01:05:08;4.20;99.90
22940;DHT22;11636;52.086;5.090;2022-12-07T01:08:21;4.10;99.90
22940;DHT22;11636;52.086;5.090;2022-12-07T01:10:49;4.10;99.90
22940;DHT22;11636;52.086;5.090;2022-12-07T01:13:44;4.00;99.90
22940;DHT22;11636;52.086;5.090;2022-12-07T01:16:43;4.00;99.90
22940;DHT22;11636;52.086;5.090;2022-12-07T01:19:33;3.90;99.90
22940;DHT22;11636;52.086;5.090;2022-12-07T01:22:09;3.90;99.90
22940;DHT22;11636;52.086;5.090;2022-12-07T01:24:51;3.90;99.90
22940;DHT22;11636;52.086;5.090;2022-12-07T01:28:07;3.90;99.90
22940;DHT22;11636;52.086;5.090;2022-12-07T01:31:29;4.00;99.90
22940;DHT22;11636;52.086;5.090;2022-12-07T01:34:03;4.00;99.90
22940;DHT22;11636;52.086;5.090;2022-12-07T01:37:03;3.90;99.90
22940;DHT22;11636;52.086;5.090;2022-12-07T01:39:51;3.90;99.90
22940;DHT22;11636;52.086;5.090;2022-12-07T01:42:44;3.90;99.90
22940;DHT22;11636;52.086;5.090;2022-12-07T01:45:40;3.90;99.90
22940;DHT22;11636;52.086;5.090;2022-12-07T01:51:30;3.80;99.90
22940;DHT22;11636;52.086;5.090;2022-12-07T01:54:03;3.70;99.90
22940;DHT22;11636;52.086;5.090;2022-12-07T01:56:33;3.70;99.90
22940;DHT22;11636;52.086;5.090;2022-12-07T01:59:29;3.80;99.90
22940;DHT22;11636;52.086;5.090;2022-12-07T02:02:35;3.80;99.90
22940;DHT22;11636;52.086;5.090;2022-12-07T02:05:25;3.90;99.90
22940;DHT22;11636;52.086;5.090;2022-12-07T02:08:14;4.00;99.90
22940;DHT22;11636;52.086;5.090;2022-12-07T02:10:52;4.10;99.90
22940;DHT22;11636;52.086;5.090;2022-12-07T02:13:34;4.10;99.90
22940;DHT22;11636;52.086;5.090;2022-12-07T02:17:07;4.20;99.90
22940;DHT22;11636;52.086;5.090;2022-12-07T02:29:16;4.40;99.90
22940;DHT22;11636;52.086;5.090;2022-12-07T02:35:40;4.40;99.90
22940;DHT22;11636;52.086;5.090;2022-12-07T02:38:39;4.40;99.90
22940;DHT22;11636;52.086;5.090;2022-12-07T02:44:31;4.10;99.90
22940;DHT22;11636;52.086;5.090;2022-12-07T02:47:29;4.10;99.90
22940;DHT22;11636;52.086;5.090;2022-12-07T02:50:24;4.00;99.90
22940;DHT22;11636;52.086;5.090;2022-12-07T02:52:57;3.90;99.90
22940;DHT22;11636;52.086;5.090;2022-12-07T02:55:44;3.90;99.90
22940;DHT22;11636;52.086;5.090;2022-12-07T02:58:47;3.80;99.90
22940;DHT22;11636;52.086;5.090;2022-12-07T03:05:12;3.70;99.90
22940;DHT22;11636;52.086;5.090;2022-12-07T03:08:08;3.70;99.90
22940;DHT22;11636;52.086;5.090;2022-12-07T03:11:34;3.60;99.90
22940;DHT22;11636;52.086;5.090;2022-12-07T03:18:00;3.50;99.90
22940;DHT22;11636;52.086;5.090;2022-12-07T03:20:54;3.40;99.90
22940;DHT22;11636;52.086;5.090;2022-12-07T03:23:54;3.50;99.90
22940;DHT22;11636;52.086;5.090;2022-12-07T03:27:34;3.40;99.90
22940;DHT22;11636;52.086;5.090;2022-12-07T03:33:37;3.40;99.90
22940;DHT22;11636;52.086;5.090;2022-12-07T03:37:00;3.30;99.90
22940;DHT22;11636;52.086;5.090;2022-12-07T03:40:09;3.30;99.90
22940;DHT22;11636;52.086;5.090;2022-12-07T03:42:37;3.20;99.90
22940;DHT22;11636;52.086;5.090;2022-12-07T03:45:32;3.20;99.90
22940;DHT22;11636;52.086;5.090;2022-12-07T03:52:24;3.30;99.90
22940;DHT22;11636;52.086;5.090;2022-12-07T03:58:19;3.40;99.90
22940;DHT22;11636;52.086;5.090;2022-12-07T04:01:23;3.40;99.90
22940;DHT22;11636;52.086;5.090;2022-12-07T04:04:36;3.40;99.90
22940;DHT22;11636;52.086;5.090;2022-12-07T04:07:24;3.30;99.90
22940;DHT22;11636;52.086;5.090;2022-12-07T04:10:25;3.40;99.90
22940;DHT22;11636;52.086;5.090;2022-12-07T04:13:34;3.40;99.90
22940;DHT22;11636;52.086;5.090;2022-12-07T04:16:56;3.40;99.90
22940;DHT22;11636;52.086;5.090;2022-12-07T04:19:57;3.40;99.90
22940;DHT22;11636;52.086;5.090;2022-12-07T04:22:31;3.30;99.90
22940;DHT22;11636;52.086;5.090;2022-12-07T04:25:07;3.30;99.90
22940;DHT22;11636;52.086;5.090;2022-12-07T04:28:05;3.20;99.90
22940;DHT22;11636;52.086;5.090;2022-12-07T04:30:39;3.10;99.90
22940;DHT22;11636;52.086;5.090;2022-12-07T04:33:06;3.10;99.90
22940;DHT22;11636;52.086;5.090;2022-12-07T04:38:55;3.10;99.90
22940;DHT22;11636;52.086;5.090;2022-12-07T04:41:43;3.10;99.90
22940;DHT22;11636;52.086;5.090;2022-12-07T04:44:28;3.10;99.90
22940;DHT22;11636;52.086;5.090;2022-12-07T04:47:22;3.00;99.90
22940;DHT22;11636;52.086;5.090;2022-12-07T04:49:49;3.00;99.90
22940;DHT22;11636;52.086;5.090;2022-12-07T04:52:44;3.00;99.90
22940;DHT22;11636;52.086;5.090;2022-12-07T04:55:33;3.00;99.90
22940;DHT22;11636;52.086;5.090;2022-12-07T04:58:37;2.90;99.90
22940;DHT22;11636;52.086;5.090;2022-12-07T05:01:04;2.80;99.90
22940;DHT22;11636;52.086;5.090;2022-12-07T05:03:55;2.80;99.90
22940;DHT22;11636;52.086;5.090;2022-12-07T05:06:28;2.80;99.90
22940;DHT22;11636;52.086;5.090;2022-12-07T05:09:02;2.80;99.90
22940;DHT22;11636;52.086;5.090;2022-12-07T05:11:35;2.90;99.90
22940;DHT22;11636;52.086;5.090;2022-12-07T05:14:20;3.00;99.90
22940;DHT22;11636;52.086;5.090;2022-12-07T05:17:34;3.10;99.90
22940;DHT22;11636;52.086;5.090;2022-12-07T05:20:32;3.10;99.90
22940;DHT22;11636;52.086;5.090;2022-12-07T05:23:29;3.10;99.90
22940;DHT22;11636;52.086;5.090;2022-12-07T05:25:58;3.10;99.90
22940;DHT22;11636;52.086;5.090;2022-12-07T05:28:42;3.00;99.90
22940;DHT22;11636;52.086;5.090;2022-12-07T05:31:12;3.10;99.90
22940;DHT22;11636;52.086;5.090;2022-12-07T05:34:10;3.10;99.90
22940;DHT22;11636;52.086;5.090;2022-12-07T05:36:57;3.20;99.90
22940;DHT22;11636;52.086;5.090;2022-12-07T05:39:53;3.30;99.90
22940;DHT22;11636;52.086;5.090;2022-12-07T05:42:48;3.40;99.90
22940;DHT22;11636;52.086;5.090;2022-12-07T05:45:36;3.50;99.90
22940;DHT22;11636;52.086;5.090;2022-12-07T05:48:08;3.50;99.90
22940;DHT22;11636;52.086;5.090;2022-12-07T05:50:52;3.60;99.90
22940;DHT22;11636;52.086;5.090;2022-12-07T05:53:32;3.60;99.90
22940;DHT22;11636;52.086;5.090;2022-12-07T05:56:18;3.60;99.90
22940;DHT22;11636;52.086;5.090;2022-12-07T05:58:51;3.60;99.90
22940;DHT22;11636;52.086;5.090;2022-12-07T06:02:12;3.70;99.90
22940;DHT22;11636;52.086;5.090;2022-12-07T06:05:07;3.80;99.90
22940;DHT22;11636;52.086;5.090;2022-12-07T06:08:05;3.80;99.90
22940;DHT22;11636;52.086;5.090;2022-12-07T06:10:32;3.80;99.90
22940;DHT22;11636;52.086;5.090;2022-12-07T06:13:23;3.70;99.90
22940;DHT22;11636;52.086;5.090;2022-12-07T06:15:50;3.70;99.90
22940;DHT22;11636;52.086;5.090;2022-12-07T06:18:31;3.60;99.90
22940;DHT22;11636;52.086;5.090;2022-12-07T06:21:21;3.60;99.90
22940;DHT22;11636;52.086;5.090;2022-12-07T06:27:22;3.80;99.90
22940;DHT22;11636;52.086;5.090;2022-12-07T06:29:59;3.80;99.90
22940;DHT22;11636;52.086;5.090;2022-12-07T06:32:42;3.90;99.90
22940;DHT22;11636;52.086;5.090;2022-12-07T06:35:32;4.00;99.90
22940;DHT22;11636;52.086;5.090;2022-12-07T06:38:30;4.10;99.90
22940;DHT22;11636;52.086;5.090;2022-12-07T06:41:21;4.00;99.90
22940;DHT22;11636;52.086;5.090;2022-12-07T06:44:19;3.90;99.90
22940;DHT22;11636;52.086;5.090;2022-12-07T06:46:45;3.80;99.90
22940;DHT22;11636;52.086;5.090;2022-12-07T06:49:50;3.80;99.90
22940;DHT22;11636;52.086;5.090;2022-12-07T06:52:32;3.60;99.90
22940;DHT22;11636;52.086;5.090;2022-12-07T06:55:08;3.50;99.90
22940;DHT22;11636;52.086;5.090;2022-12-07T06:58:06;3.50;99.90
22940;DHT22;11636;52.086;5.090;2022-12-07T07:01:34;3.60;99.90
22940;DHT22;11636;52.086;5.090;2022-12-07T07:04:29;3.70;99.90
22940;DHT22;11636;52.086;5.090;2022-12-07T07:06:59;3.70;99.90
22940;DHT22;11636;52.086;5.090;2022-12-07T07:09:56;3.70;99.90
22940;DHT22;11636;52.086;5.090;2022-12-07T07:13:13;3.60;99.90
22940;DHT22;11636;52.086;5.090;2022-12-07T07:16:09;3.50;99.90
22940;DHT22;11636;52.086;5.090;2022-12-07T07:18:57;3.40;99.90
22940;DHT22;11636;52.086;5.090;2022-12-07T07:21:50;3.40;99.90
22940;DHT22;11636;52.086;5.090;2022-12-07T07:24:40;3.30;99.90
22940;DHT22;11636;52.086;5.090;2022-12-07T07:27:25;3.30;99.90
22940;DHT22;11636;52.086;5.090;2022-12-07T07:30:32;3.30;99.90
22940;DHT22;11636;52.086;5.090;2022-12-07T07:33:27;3.30;99.90
22940;DHT22;11636;52.086;5.090;2022-12-07T07:36:36;3.30;99.90
22940;DHT22;11636;52.086;5.090;2022-12-07T07:39:05;3.30;99.90
22940;DHT22;11636;52.086;5.090;2022-12-07T07:41:59;3.20;99.90
22940;DHT22;11636;52.086;5.090;2022-12-07T07:45:00;3.20;99.90
22940;DHT22;11636;52.086;5.090;2022-12-07T07:47:27;3.20;99.90
22940;DHT22;11636;52.086;5.090;2022-12-07T07:50:37;3.20;99.90
22940;DHT22;11636;52.086;5.090;2022-12-07T07:53:16;3.20;99.90
22940;DHT22;11636;52.086;5.090;2022-12-07T07:56:05;3.20;99.90
22940;DHT22;11636;52.086;5.090;2022-12-07T07:59:09;3.30;99.90
22940;DHT22;11636;52.086;5.090;2022-12-07T08:05:38;3.30;99.90
22940;DHT22;11636;52.086;5.090;2022-12-07T08:08:08;3.30;99.90
22940;DHT22;11636;52.086;5.090;2022-12-07T08:10:45;3.40;99.90
22940;DHT22;11636;52.086;5.090;2022-12-07T08:13:31;3.30;99.90
22940;DHT22;11636;52.086;5.090;2022-12-07T08:16:04;3.40;99.90
22940;DHT22;11636;52.086;5.090;2022-12-07T08:18:39;3.30;99.90
22940;DHT22;11636;52.086;5.090;2022-12-07T08:21:07;3.30;99.90
22940;DHT22;11636;52.086;5.090;2022-12-07T08:23:36;3.40;99.90
22940;DHT22;11636;52.086;5.090;2022-12-07T08:26:13;3.40;99.90
22940;DHT22;11636;52.086;5.090;2022-12-07T08:28:41;3.40;99.90
22940;DHT22;11636;52.086;5.090;2022-12-07T08:31:14;3.50;99.90
22940;DHT22;11636;52.086;5.090;2022-12-07T08:33:48;3.70;99.90
22940;DHT22;11636;52.086;5.090;2022-12-07T08:36:23;3.80;99.90
22940;DHT22;11636;52.086;5.090;2022-12-07T08:38:50;4.00;99.90
22940;DHT22;11636;52.086;5.090;2022-12-07T08:41:36;4.10;99.90
22940;DHT22;11636;52.086;5.090;2022-12-07T08:44:10;4.20;99.90
22940;DHT22;11636;52.086;5.090;2022-12-07T08:46:45;4.20;99.90
22940;DHT22;11636;52.086;5.090;2022-12-07T08:49:24;4.30;99.90
22940;DHT22;11636;52.086;5.090;2022-12-07T08:51:51;4.30;99.90
22940;DHT22;11636;52.086;5.090;2022-12-07T08:54:25;4.30;99.90
22940;DHT22;11636;52.086;5.090;2022-12-07T08:56:54;4.40;99.90
22940;DHT22;11636;52.086;5.090;2022-12-07T08:59:26;4.40;99.90
22940;DHT22;11636;52.086;5.090;2022-12-07T09:01:59;4.40;99.90
22940;DHT22;11636;52.086;5.090;2022-12-07T09:04:26;4.50;99.90
22940;DHT22;11636;52.086;5.090;2022-12-07T09:06:55;4.50;99.90
22940;DHT22;11636;52.086;5.090;2022-12-07T09:09:28;4.50;99.90
22940;DHT22;11636;52.086;5.090;2022-12-07T09:11:55;4.50;99.90
22940;DHT22;11636;52.086;5.090;2022-12-07T09:14:22;4.60;99.90
22940;DHT22;11636;52.086;5.090;2022-12-07T09:17:09;4.60;99.90
22940;DHT22;11636;52.086;5.090;2022-12-07T09:19:37;4.80;99.90
22940;DHT22;11636;52.086;5.090;2022-12-07T09:22:13;5.00;99.90
22940;DHT22;11636;52.086;5.090;2022-12-07T09:24:46;5.10;99.90
22940;DHT22;11636;52.086;5.090;2022-12-07T09:27:13;5.20;99.90
22940;DHT22;11636;52.086;5.090;2022-12-07T09:29:40;5.20;99.90
22940;DHT22;11636;52.086;5.090;2022-12-07T09:32:13;5.20;99.90
22940;DHT22;11636;52.086;5.090;2022-12-07T09:34:40;5.20;99.90
22940;DHT22;11636;52.086;5.090;2022-12-07T09:37:12;5.20;99.90
22940;DHT22;11636;52.086;5.090;2022-12-07T09:39:45;5.20;99.90
22940;DHT22;11636;52.086;5.090;2022-12-07T09:42:32;5.20;99.90
22940;DHT22;11636;52.086;5.090;2022-12-07T09:45:23;5.20;99.90
22940;DHT22;11636;52.086;5.090;2022-12-07T09:47:51;5.10;99.90
22940;DHT22;11636;52.086;5.090;2022-12-07T09:50:27;5.10;99.90
22940;DHT22;11636;52.086;5.090;2022-12-07T09:53:03;5.10;99.90
22940;DHT22;11636;52.086;5.090;2022-12-07T09:55:38;5.00;99.90
22940;DHT22;11636;52.086;5.090;2022-12-07T09:58:29;5.10;99.90
22940;DHT22;11636;52.086;5.090;2022-12-07T10:01:14;5.20;99.90
22940;DHT22;11636;52.086;5.090;2022-12-07T10:03:52;5.30;99.90
22940;DHT22;11636;52.086;5.090;2022-12-07T10:06:19;5.50;99.90
22940;DHT22;11636;52.086;5.090;2022-12-07T10:08:47;5.60;99.90
22940;DHT22;11636;52.086;5.090;2022-12-07T10:11:22;5.80;99.90
22940;DHT22;11636;52.086;5.090;2022-12-07T10:13:52;5.90;99.90
22940;DHT22;11636;52.086;5.090;2022-12-07T10:19:26;6.00;99.90
22940;DHT22;11636;52.086;5.090;2022-12-07T10:22:04;5.80;99.90
22940;DHT22;11636;52.086;5.090;2022-12-07T10:24:40;5.70;99.90
22940;DHT22;11636;52.086;5.090;2022-12-07T10:27:25;5.60;99.90
22940;DHT22;11636;52.086;5.090;2022-12-07T10:29:59;5.70;99.90
22940;DHT22;11636;52.086;5.090;2022-12-07T10:32:33;5.80;99.90
22940;DHT22;11636;52.086;5.090;2022-12-07T10:35:23;6.20;99.90
22940;DHT22;11636;52.086;5.090;2022-12-07T10:37:52;6.50;99.90
22940;DHT22;11636;52.086;5.090;2022-12-07T10:40:33;6.70;99.90
22940;DHT22;11636;52.086;5.090;2022-12-07T10:43:08;6.80;99.90
22940;DHT22;11636;52.086;5.090;2022-12-07T10:51:22;6.40;99.90
22940;DHT22;11636;52.086;5.090;2022-12-07T11:22:33;6.30;99.90
22940;DHT22;11636;52.086;5.090;2022-12-07T11:33:59;6.50;99.90
22940;DHT22;11636;52.086;5.090;2022-12-07T11:36:49;6.50;99.90
22940;DHT22;11636;52.086;5.090;2022-12-07T11:39:28;6.50;99.90
22940;DHT22;11636;52.086;5.090;2022-12-07T11:42:08;6.40;99.90
22940;DHT22;11636;52.086;5.090;2022-12-07T11:47:58;6.30;99.90
22940;DHT22;11636;52.086;5.090;2022-12-07T11:50:48;6.20;99.90
22940;DHT22;11636;52.086;5.090;2022-12-07T11:53:37;6.10;99.90
22940;DHT22;11636;52.086;5.090;2022-12-07T11:56:13;6.00;99.90
22940;DHT22;11636;52.086;5.090;2022-12-07T11:58:51;6.00;99.90
22940;DHT22;11636;52.086;5.090;2022-12-07T12:01:42;5.90;99.90
22940;DHT22;11636;52.086;5.090;2022-12-07T12:06:56;5.90;99.90
22940;DHT22;11636;52.086;5.090;2022-12-07T12:10:02;6.00;99.90
22940;DHT22;11636;52.086;5.090;2022-12-07T12:12:51;6.10;99.90
22940;DHT22;11636;52.086;5.090;2022-12-07T12:16:19;6.20;99.90
22940;DHT22;11636;52.086;5.090;2022-12-07T12:21:17;6.40;99.90
22940;DHT22;11636;52.086;5.090;2022-12-07T12:23:58;6.40;99.90
22940;DHT22;11636;52.086;5.090;2022-12-07T12:26:35;6.40;99.90
22940;DHT22;11636;52.086;5.090;2022-12-07T12:29:06;6.30;99.90
22940;DHT22;11636;52.086;5.090;2022-12-07T12:31:42;6.40;99.90
22940;DHT22;11636;52.086;5.090;2022-12-07T12:34:32;6.30;99.90
22940;DHT22;11636;52.086;5.090;2022-12-07T12:42:55;6.00;99.90
22940;DHT22;11636;52.086;5.090;2022-12-07T12:48:35;5.90;99.90
22940;DHT22;11636;52.086;5.090;2022-12-07T12:54:12;5.90;99.90
22940;DHT22;11636;52.086;5.090;2022-12-07T12:59:58;5.80;99.90
22940;DHT22;11636;52.086;5.090;2022-12-07T13:02:34;5.80;99.90
22940;DHT22;11636;52.086;5.090;2022-12-07T13:08:01;5.90;99.90
22940;DHT22;11636;52.086;5.090;2022-12-07T13:26:35;6.40;99.90
22940;DHT22;11636;52.086;5.090;2022-12-07T13:29:15;6.50;99.90
22940;DHT22;11636;52.086;5.090;2022-12-07T13:31:49;6.70;99.90
22940;DHT22;11636;52.086;5.090;2022-12-07T13:37:30;6.70;99.90
22940;DHT22;11636;52.086;5.090;2022-12-07T13:40:21;6.30;99.90
22940;DHT22;11636;52.086;5.090;2022-12-07T13:43:03;5.90;99.90
22940;DHT22;11636;52.086;5.090;2022-12-07T13:45:58;5.50;99.90
22940;DHT22;11636;52.086;5.090;2022-12-07T13:48:50;5.30;99.90
22940;DHT22;11636;52.086;5.090;2022-12-07T13:51:26;5.10;99.90
22940;DHT22;11636;52.086;5.090;2022-12-07T13:54:00;5.00;99.90
22940;DHT22;11636;52.086;5.090;2022-12-07T13:56:35;4.90;99.90
22940;DHT22;11636;52.086;5.090;2022-12-07T13:59:05;4.90;99.90
22940;DHT22;11636;52.086;5.090;2022-12-07T14:01:39;4.90;99.90
22940;DHT22;11636;52.086;5.090;2022-12-07T14:04:40;4.90;99.90
22940;DHT22;11636;52.086;5.090;2022-12-07T14:07:21;4.90;99.90
22940;DHT22;11636;52.086;5.090;2022-12-07T14:10:02;4.90;99.90
22940;DHT22;11636;52.086;5.090;2022-12-07T14:12:36;4.90;99.90
22940;DHT22;11636;52.086;5.090;2022-12-07T14:15:27;4.90;99.90
22940;DHT22;11636;52.086;5.090;2022-12-07T14:18:02;4.90;99.90
22940;DHT22;11636;52.086;5.090;2022-12-07T14:20:40;4.90;99.90
22940;DHT22;11636;52.086;5.090;2022-12-07T14:23:27;4.90;99.90
22940;DHT22;11636;52.086;5.090;2022-12-07T14:25:54;5.00;99.90
22940;DHT22;11636;52.086;5.090;2022-12-07T14:28:37;5.10;99.90
22940;DHT22;11636;52.086;5.090;2022-12-07T14:31:16;5.10;99.90
22940;DHT22;11636;52.086;5.090;2022-12-07T14:33:50;5.10;99.90
22940;DHT22;11636;52.086;5.090;2022-12-07T14:36:24;5.10;99.90
22940;DHT22;11636;52.086;5.090;2022-12-07T14:38:57;5.10;99.90
22940;DHT22;11636;52.086;5.090;2022-12-07T14:41:26;5.10;99.90
22940;DHT22;11636;52.086;5.090;2022-12-07T14:44:20;5.10;99.90
22940;DHT22;11636;52.086;5.090;2022-12-07T14:46:50;5.10;99.90
22940;DHT22;11636;52.086;5.090;2022-12-07T14:49:44;5.10;99.90
22940;DHT22;11636;52.086;5.090;2022-12-07T14:52:27;5.10;99.90
22940;DHT22;11636;52.086;5.090;2022-12-07T14:55:29;5.00;99.90
22940;DHT22;11636;52.086;5.090;2022-12-07T14:58:04;4.90;99.90
22940;DHT22;11636;52.086;5.090;2022-12-07T15:00:38;4.90;99.90
22940;DHT22;11636;52.086;5.090;2022-12-07T15:03:05;4.90;99.90
22940;DHT22;11636;52.086;5.090;2022-12-07T15:05:38;4.90;99.90
22940;DHT22;11636;52.086;5.090;2022-12-07T15:08:05;4.90;99.90
22940;DHT22;11636;52.086;5.090;2022-12-07T15:10:39;4.90;99.90
22940;DHT22;11636;52.086;5.090;2022-12-07T15:13:17;4.90;99.90
22940;DHT22;11636;52.086;5.090;2022-12-07T15:16:16;4.80;99.90
22940;DHT22;11636;52.086;5.090;2022-12-07T15:18:46;4.80;99.90
22940;DHT22;11636;52.086;5.090;2022-12-07T15:21:41;4.80;99.90
22940;DHT22;11636;52.086;5.090;2022-12-07T15:24:15;4.80;99.90
22940;DHT22;11636;52.086;5.090;2022-12-07T15:26:42;4.80;99.90
22940;DHT22;11636;52.086;5.090;2022-12-07T15:29:15;4.70;99.90
22940;DHT22;11636;52.086;5.090;2022-12-07T15:31:51;4.80;99.90
22940;DHT22;11636;52.086;5.090;2022-12-07T15:34:26;4.80;99.90
22940;DHT22;11636;52.086;5.090;2022-12-07T15:37:04;4.80;99.90
22940;DHT22;11636;52.086;5.090;2022-12-07T15:39:39;4.80;99.90
22940;DHT22;11636;52.086;5.090;2022-12-07T15:42:06;4.80;99.90
22940;DHT22;11636;52.086;5.090;2022-12-07T15:44:39;4.70;99.90
22940;DHT22;11636;52.086;5.090;2022-12-07T15:47:38;4.70;99.90
22940;DHT22;11636;52.086;5.090;2022-12-07T15:50:32;4.60;99.90
22940;DHT22;11636;52.086;5.090;2022-12-07T15:53:05;4.60;99.90
22940;DHT22;11636;52.086;5.090;2022-12-07T15:55:32;4.60;99.90
22940;DHT22;11636;52.086;5.090;2022-12-07T15:58:08;4.60;99.90
22940;DHT22;11636;52.086;5.090;2022-12-07T16:00:41;4.70;99.90
22940;DHT22;11636;52.086;5.090;2022-12-07T16:03:15;4.60;99.90
22940;DHT22;11636;52.086;5.090;2022-12-07T16:05:49;4.60;99.90
22940;DHT22;11636;52.086;5.090;2022-12-07T16:08:16;4.60;99.90
22940;DHT22;11636;52.086;5.090;2022-12-07T16:10:49;4.60;99.90
22940;DHT22;11636;52.086;5.090;2022-12-07T16:13:16;4.60;99.90
22940;DHT22;11636;52.086;5.090;2022-12-07T16:15:51;4.60;99.90
22940;DHT22;11636;52.086;5.090;2022-12-07T16:18:18;4.60;99.90
22940;DHT22;11636;52.086;5.090;2022-12-07T16:20:51;4.50;99.90
22940;DHT22;11636;52.086;5.090;2022-12-07T16:23:18;4.60;99.90
22940;DHT22;11636;52.086;5.090;2022-12-07T16:25:46;4.50;99.90
22940;DHT22;11636;52.086;5.090;2022-12-07T16:28:19;4.60;99.90
22940;DHT22;11636;52.086;5.090;2022-12-07T16:30:46;4.60;99.90
22940;DHT22;11636;52.086;5.090;2022-12-07T16:33:19;4.60;99.90
22940;DHT22;11636;52.086;5.090;2022-12-07T16:35:46;4.60;99.90
22940;DHT22;11636;52.086;5.090;2022-12-07T16:38:19;4.60;99.90
22940;DHT22;11636;52.086;5.090;2022-12-07T16:40:47;4.60;99.90
22940;DHT22;11636;52.086;5.090;2022-12-07T16:43:20;4.60;99.90
22940;DHT22;11636;52.086;5.090;2022-12-07T16:45:54;4.50;99.90
22940;DHT22;11636;52.086;5.090;2022-12-07T16:48:28;4.60;99.90
22940;DHT22;11636;52.086;5.090;2022-12-07T16:50:55;4.60;99.90
22940;DHT22;11636;52.086;5.090;2022-12-07T16:53:23;4.60;99.90
22940;DHT22;11636;52.086;5.090;2022-12-07T16:55:57;4.50;99.90
22940;DHT22;11636;52.086;5.090;2022-12-07T16:58:30;4.50;99.90
22940;DHT22;11636;52.086;5.090;2022-12-07T17:00:57;4.50;99.90
22940;DHT22;11636;52.086;5.090;2022-12-07T17:03:35;4.50;99.90
22940;DHT22;11636;52.086;5.090;2022-12-07T17:06:02;4.50;99.90
22940;DHT22;11636;52.086;5.090;2022-12-07T17:08:36;4.50;99.90
22940;DHT22;11636;52.086;5.090;2022-12-07T17:11:30;4.50;99.90
22940;DHT22;11636;52.086;5.090;2022-12-07T17:14:04;4.50;99.90
22940;DHT22;11636;52.086;5.090;2022-12-07T17:17:00;4.40;99.90
22940;DHT22;11636;52.086;5.090;2022-12-07T17:19:27;4.40;99.90
22940;DHT22;11636;52.086;5.090;2022-12-07T17:22:11;4.40;99.90
22940;DHT22;11636;52.086;5.090;2022-12-07T17:24:45;4.30;99.90
22940;DHT22;11636;52.086;5.090;2022-12-07T17:27:12;4.30;99.90
22940;DHT22;11636;52.086;5.090;2022-12-07T17:29:39;4.30;99.90
22940;DHT22;11636;52.086;5.090;2022-12-07T17:32:13;4.30;99.90
22940;DHT22;11636;52.086;5.090;2022-12-07T17:34:41;4.30;99.90
22940;DHT22;11636;52.086;5.090;2022-12-07T17:37:19;4.30;99.90
22940;DHT22;11636;52.086;5.090;2022-12-07T17:39:53;4.30;99.90
22940;DHT22;11636;52.086;5.090;2022-12-07T17:42:25;4.30;99.90
22940;DHT22;11636;52.086;5.090;2022-12-07T17:45:22;4.40;99.90
22940;DHT22;11636;52.086;5.090;2022-12-07T17:47:49;4.30;99.90
22940;DHT22;11636;52.086;5.090;2022-12-07T17:50:23;4.40;99.90
22940;DHT22;11636;52.086;5.090;2022-12-07T17:53:11;4.40;99.90
22940;DHT22;11636;52.086;5.090;2022-12-07T17:55:44;4.40;99.90
22940;DHT22;11636;52.086;5.090;2022-12-07T17:58:31;4.30;99.90
22940;DHT22;11636;52.086;5.090;2022-12-07T18:01:08;4.30;99.90
22940;DHT22;11636;52.086;5.090;2022-12-07T18:03:36;4.30;99.90
22940;DHT22;11636;52.086;5.090;2022-12-07T18:06:03;4.40;99.90
22940;DHT22;11636;52.086;5.090;2022-12-07T18:08:37;4.40;99.90
22940;DHT22;11636;52.086;5.090;2022-12-07T18:11:05;4.40;99.90
22940;DHT22;11636;52.086;5.090;2022-12-07T18:13:33;4.40;99.90
22940;DHT22;11636;52.086;5.090;2022-12-07T18:16:12;4.50;99.90
22940;DHT22;11636;52.086;5.090;2022-12-07T18:18:40;4.50;99.90
22940;DHT22;11636;52.086;5.090;2022-12-07T18:21:24;4.50;99.90
22940;DHT22;11636;52.086;5.090;2022-12-07T18:23:54;4.50;99.90
22940;DHT22;11636;52.086;5.090;2022-12-07T18:26:28;4.50;99.90
22940;DHT22;11636;52.086;5.090;2022-12-07T18:28:58;4.60;99.90
22940;DHT22;11636;52.086;5.090;2022-12-07T18:31:25;4.60;99.90
22940;DHT22;11636;52.086;5.090;2022-12-07T18:34:07;4.60;99.90
22940;DHT22;11636;52.086;5.090;2022-12-07T18:36:42;4.50;99.90
22940;DHT22;11636;52.086;5.090;2022-12-07T18:39:17;4.50;99.90
22940;DHT22;11636;52.086;5.090;2022-12-07T18:42:00;4.50;99.90
22940;DHT22;11636;52.086;5.090;2022-12-07T18:44:27;4.50;99.90
22940;DHT22;11636;52.086;5.090;2022-12-07T18:46:57;4.40;99.90
22940;DHT22;11636;52.086;5.090;2022-12-07T18:49:30;4.40;99.90
22940;DHT22;11636;52.086;5.090;2022-12-07T18:51:59;4.30;99.90
22940;DHT22;11636;52.086;5.090;2022-12-07T18:54:26;4.30;99.90
22940;DHT22;11636;52.086;5.090;2022-12-07T18:56:59;4.30;99.90
22940;DHT22;11636;52.086;5.090;2022-12-07T18:59:26;4.30;99.90
22940;DHT22;11636;52.086;5.090;2022-12-07T19:02:19;4.30;99.90
22940;DHT22;11636;52.086;5.090;2022-12-07T19:04:46;4.30;99.90
22940;DHT22;11636;52.086;5.090;2022-12-07T19:07:13;4.40;99.90
22940;DHT22;11636;52.086;5.090;2022-12-07T19:09:47;4.40;99.90
22940;DHT22;11636;52.086;5.090;2022-12-07T19:12:21;4.40;99.90
22940;DHT22;11636;52.086;5.090;2022-12-07T19:14:55;4.40;99.90
22940;DHT22;11636;52.086;5.090;2022-12-07T19:17:22;4.40;99.90
22940;DHT22;11636;52.086;5.090;2022-12-07T19:19:49;4.40;99.90
22940;DHT22;11636;52.086;5.090;2022-12-07T19:22:23;4.40;99.90
22940;DHT22;11636;52.086;5.090;2022-12-07T19:24:57;4.40;99.90
22940;DHT22;11636;52.086;5.090;2022-12-07T19:27:25;4.40;99.90
22940;DHT22;11636;52.086;5.090;2022-12-07T19:29:59;4.40;99.90
22940;DHT22;11636;52.086;5.090;2022-12-07T19:32:28;4.40;99.90
22940;DHT22;11636;52.086;5.090;2022-12-07T19:34:55;4.30;99.90
22940;DHT22;11636;52.086;5.090;2022-12-07T19:37:35;4.30;99.90
22940;DHT22;11636;52.086;5.090;2022-12-07T19:40:04;4.30;99.90
22940;DHT22;11636;52.086;5.090;2022-12-07T19:42:38;4.30;99.90